createdAt,value
2018-09-01T00:00:28.748Z,49.06
2018-09-01T00:02:58.125Z,49.08
2018-09-01T00:05:27.578Z,50.81
2018-09-01T00:07:56.625Z,50.59
2018-09-01T00:10:26.035Z,51.07
2018-09-01T00:12:55.298Z,50.18
2018-09-01T00:15:24.422Z,48.97
2018-09-01T00:17:53.700Z,50.18
2018-09-01T00:20:22.839Z,50.92
2018-09-01T00:22:52.202Z,50.05
2018-09-01T00:25:21.717Z,51.16
2018-09-01T00:27:51.063Z,50.93
2018-09-01T00:30:20.250Z,51.58
2018-09-01T00:32:49.499Z,50.98
2018-09-01T00:35:19.009Z,51.50
2018-09-01T00:37:53.170Z,51.87
2018-09-01T00:40:27.048Z,52.56
2018-09-01T00:42:58.653Z,51.92
2018-09-01T00:45:28.211Z,52.44
2018-09-01T00:47:57.537Z,51.78
2018-09-01T00:50:26.960Z,52.57
2018-09-01T00:52:56.649Z,52.40
2018-09-01T00:55:32.115Z,52.63
2018-09-01T00:58:02.018Z,52.81
2018-09-01T01:00:31.254Z,53.53
2018-09-01T01:03:00.747Z,53.83
2018-09-01T01:05:29.987Z,53.43
2018-09-01T01:07:59.244Z,52.77
2018-09-01T01:10:28.444Z,50.95
2018-09-01T01:12:57.444Z,51.49
2018-09-01T01:15:26.723Z,51.83
2018-09-01T01:17:55.920Z,51.47
2018-09-01T01:20:25.356Z,50.28
2018-09-01T01:22:54.683Z,50.89
2018-09-01T01:25:23.884Z,52.22
2018-09-01T01:27:53.236Z,53.10
2018-09-01T01:30:22.670Z,53.66
2018-09-01T01:32:51.943Z,51.25
2018-09-01T01:35:21.243Z,52.10
2018-09-01T01:37:50.451Z,51.64
2018-09-01T01:40:19.668Z,51.21
2018-09-01T01:42:49.148Z,52.56
2018-09-01T01:45:18.580Z,52.05
2018-09-01T01:47:47.924Z,52.62
2018-09-01T01:50:17.167Z,51.93
2018-09-01T01:52:46.070Z,52.89
2018-09-01T01:55:15.126Z,49.82
2018-09-01T01:57:51.474Z,50.18
2018-09-01T02:00:21.023Z,50.06
2018-09-01T02:02:50.121Z,51.37
2018-09-01T02:05:21.204Z,50.87
2018-09-01T02:07:51.167Z,51.08
2018-09-01T02:10:20.146Z,50.65
2018-09-01T02:12:49.355Z,51.12
2018-09-01T02:15:18.713Z,51.03
2018-09-01T02:17:48.171Z,50.24
2018-09-01T02:20:17.531Z,50.91
2018-09-01T02:22:46.620Z,51.40
2018-09-01T02:25:15.958Z,52.28
2018-09-01T02:27:45.367Z,51.42
2018-09-01T02:30:14.772Z,52.16
2018-09-01T02:32:43.935Z,51.92
2018-09-01T02:35:13.353Z,51.48
2018-09-01T02:37:42.324Z,51.34
2018-09-01T02:40:11.937Z,52.24
2018-09-01T02:42:41.079Z,52.30
2018-09-01T02:45:10.140Z,53.05
2018-09-01T02:47:39.451Z,53.62
2018-09-01T02:50:08.661Z,53.25
2018-09-01T02:52:38.073Z,52.76
2018-09-01T02:55:07.747Z,53.94
2018-09-01T02:57:37.007Z,53.54
2018-09-01T03:00:10.293Z,54.66
2018-09-01T03:02:45.542Z,54.94
2018-09-01T03:05:16.228Z,54.50
2018-09-01T03:07:45.529Z,55.56
2018-09-01T03:10:14.515Z,53.83
2018-09-01T03:12:43.447Z,54.10
2018-09-01T03:15:12.837Z,53.88
2018-09-01T03:17:41.761Z,55.17
2018-09-01T03:20:11.140Z,54.36
2018-09-01T03:22:40.335Z,54.60
2018-09-01T03:25:09.700Z,55.36
2018-09-01T03:27:38.934Z,54.82
2018-09-01T03:30:08.189Z,56.52
2018-09-01T03:32:37.514Z,55.70
2018-09-01T03:35:07.236Z,55.93
2018-09-01T03:37:36.547Z,56.35
2018-09-01T03:40:06.195Z,56.82
2018-09-01T03:42:35.381Z,55.80
2018-09-01T03:45:04.526Z,55.16
2018-09-01T03:47:33.597Z,55.93
2018-09-01T03:50:02.810Z,56.07
2018-09-01T03:52:31.896Z,56.77
2018-09-01T03:55:00.896Z,57.35
2018-09-01T03:57:30.170Z,56.88
2018-09-01T03:59:59.289Z,55.99
2018-09-01T04:02:28.146Z,57.03
2018-09-01T04:04:57.457Z,58.30
2018-09-01T04:07:26.688Z,56.65
2018-09-01T04:09:55.628Z,57.40
2018-09-01T04:12:24.700Z,58.54
2018-09-01T04:14:54.081Z,57.91
2018-09-01T04:17:23.576Z,57.02
2018-09-01T04:19:52.506Z,56.32
2018-09-01T04:22:21.720Z,56.78
2018-09-01T04:24:51.027Z,57.43
2018-09-01T04:27:20.205Z,57.66
2018-09-01T04:29:49.724Z,57.22
2018-09-01T04:32:18.769Z,59.09
2018-09-01T04:34:47.656Z,59.40
2018-09-01T04:37:16.970Z,59.10
2018-09-01T04:39:46.250Z,58.24
2018-09-01T04:42:15.682Z,58.98
2018-09-01T04:44:44.644Z,57.85
2018-09-01T04:47:13.842Z,57.15
2018-09-01T04:49:43.292Z,58.89
2018-09-01T04:52:12.633Z,58.40
2018-09-01T04:54:41.883Z,59.29
2018-09-01T04:57:11.316Z,58.82
2018-09-01T04:59:40.423Z,58.04
2018-09-01T05:02:09.456Z,58.54
2018-09-01T05:04:38.600Z,57.79
2018-09-01T05:07:08.198Z,55.66
2018-09-01T05:09:37.544Z,53.87
2018-09-01T05:12:06.841Z,55.33
2018-09-01T05:14:36.025Z,55.90
2018-09-01T05:17:05.535Z,54.13
2018-09-01T05:19:34.704Z,54.35
2018-09-01T05:22:03.799Z,54.55
2018-09-01T05:24:33.068Z,56.13
2018-09-01T05:27:02.572Z,57.43
2018-09-01T05:29:31.882Z,55.67
2018-09-01T05:32:01.216Z,56.18
2018-09-01T05:34:30.507Z,56.15
2018-09-01T05:36:59.928Z,56.60
2018-09-01T05:39:29.500Z,55.95
2018-09-01T05:41:58.422Z,55.66
2018-09-01T05:44:27.807Z,54.04
2018-09-01T05:46:57.218Z,54.20
2018-09-01T05:49:26.379Z,53.66
2018-09-01T05:51:55.681Z,52.92
2018-09-01T05:54:25.088Z,52.41
2018-09-01T05:56:53.975Z,53.59
2018-09-01T05:59:23.274Z,53.60
2018-09-01T06:01:52.420Z,53.31
2018-09-01T06:04:21.891Z,53.09
2018-09-01T06:06:51.262Z,52.73
2018-09-01T06:09:20.478Z,51.11
2018-09-01T06:11:49.729Z,51.97
2018-09-01T06:14:18.894Z,51.60
2018-09-01T06:16:47.873Z,51.38
2018-09-01T06:19:17.405Z,51.93
2018-09-01T06:21:46.701Z,51.57
2018-09-01T06:24:16.013Z,51.91
2018-09-01T06:26:45.239Z,51.64
2018-09-01T06:29:16.068Z,49.78
2018-09-01T06:31:49.725Z,47.29
2018-09-01T06:34:19.131Z,48.54
2018-09-01T06:36:48.387Z,49.47
2018-09-01T06:39:18.059Z,49.81
2018-09-01T06:41:47.384Z,50.07
2018-09-01T06:44:16.624Z,50.05
2018-09-01T06:46:46.106Z,49.72
2018-09-01T06:49:15.763Z,48.87
2018-09-01T06:51:45.159Z,47.93
2018-09-01T06:54:14.516Z,48.13
2018-09-01T06:56:43.499Z,46.79
2018-09-01T06:59:12.943Z,46.68
2018-09-01T07:01:42.179Z,45.13
2018-09-01T07:04:11.530Z,43.51
2018-09-01T07:06:40.783Z,43.81
2018-09-01T07:09:10.072Z,45.78
2018-09-01T07:11:39.535Z,43.63
2018-09-01T07:14:08.779Z,44.49
2018-09-01T07:16:38.027Z,46.09
2018-09-01T07:19:07.448Z,47.04
2018-09-01T07:21:36.725Z,46.24
2018-09-01T07:24:06.223Z,44.56
2018-09-01T07:26:35.582Z,44.98
2018-09-01T07:29:04.883Z,46.35
2018-09-01T07:31:41.185Z,45.93
2018-09-01T07:34:10.525Z,44.62
2018-09-01T07:36:39.944Z,44.53
2018-09-01T07:39:09.419Z,44.30
2018-09-01T07:41:38.621Z,43.60
2018-09-01T07:44:08.052Z,42.32
2018-09-01T07:46:37.290Z,43.79
2018-09-01T07:49:06.320Z,43.94
2018-09-01T07:51:35.234Z,43.65
2018-09-01T07:54:04.424Z,43.83
2018-09-01T07:56:33.590Z,42.49
2018-09-01T07:59:02.819Z,41.70
2018-09-01T08:01:31.768Z,39.98
2018-09-01T08:04:01.068Z,38.96
2018-09-01T08:06:30.398Z,37.13
2018-09-01T08:08:59.653Z,36.56
2018-09-01T08:11:28.703Z,33.96
2018-09-01T08:13:58.323Z,33.11
2018-09-01T08:16:27.600Z,31.27
2018-09-01T08:18:57.059Z,28.70
2018-09-01T08:21:25.968Z,29.07
2018-09-01T08:23:55.083Z,28.83
2018-09-01T08:26:24.299Z,27.43
2018-09-01T08:28:53.681Z,27.13
2018-09-01T08:31:23.023Z,25.67
2018-09-01T08:33:52.244Z,25.25
2018-09-01T08:36:21.224Z,24.84
2018-09-01T08:38:50.603Z,24.45
2018-09-01T08:41:19.589Z,25.09
2018-09-01T08:43:48.869Z,24.42
2018-09-01T08:46:17.900Z,24.13
2018-09-01T08:48:47.305Z,23.53
2018-09-01T08:51:16.609Z,23.47
2018-09-01T08:53:45.955Z,23.80
2018-09-01T08:56:15.395Z,22.90
2018-09-01T08:58:44.756Z,21.65
2018-09-01T09:01:14.109Z,22.30
2018-09-01T09:03:43.476Z,23.39
2018-09-01T09:06:12.855Z,22.75
2018-09-01T09:08:41.869Z,22.69
2018-09-01T09:11:11.309Z,23.61
2018-09-01T09:13:40.710Z,22.77
2018-09-01T09:16:10.211Z,23.11
2018-09-01T09:18:39.596Z,24.15
2018-09-01T09:21:08.823Z,25.11
2018-09-01T09:23:38.145Z,25.54
2018-09-01T09:26:07.560Z,26.63
2018-09-01T09:28:37.013Z,26.87
2018-09-01T09:31:06.132Z,25.98
2018-09-01T09:33:35.347Z,25.14
2018-09-01T09:36:04.601Z,24.75
2018-09-01T09:38:34.095Z,24.81
2018-09-01T09:41:03.513Z,22.50
2018-09-01T09:43:32.481Z,20.89
2018-09-01T09:46:01.463Z,19.46
2018-09-01T09:48:30.619Z,18.62
2018-09-01T09:51:00.045Z,18.26
2018-09-01T09:53:29.387Z,17.96
2018-09-01T09:55:58.710Z,16.99
2018-09-01T09:58:28.228Z,16.49
2018-09-01T10:00:59.208Z,15.67
2018-09-01T10:03:29.250Z,14.88
2018-09-01T10:05:58.205Z,14.23
2018-09-01T10:08:27.051Z,14.49
2018-09-01T10:10:56.082Z,13.70
2018-09-01T10:13:25.318Z,13.88
2018-09-01T10:15:54.510Z,12.95
2018-09-01T10:18:23.807Z,12.66
2018-09-01T10:20:53.222Z,11.27
2018-09-01T10:23:22.843Z,11.00
2018-09-01T10:25:52.412Z,11.15
2018-09-01T10:28:21.998Z,11.12
2018-09-01T10:30:51.298Z,10.90
2018-09-01T10:33:20.534Z,11.24
2018-09-01T10:35:49.717Z,10.47
2018-09-01T10:38:19.082Z,10.59
2018-09-01T10:40:48.245Z,10.08
2018-09-01T10:43:17.462Z,10.42
2018-09-01T10:45:46.670Z,10.05
2018-09-01T10:48:15.721Z,9.93
2018-09-01T10:50:44.700Z,10.22
2018-09-01T10:53:14.092Z,9.38
2018-09-01T10:55:43.383Z,9.56
2018-09-01T10:58:12.592Z,8.23
2018-09-01T11:00:41.827Z,8.78
2018-09-01T11:03:10.860Z,8.83
2018-09-01T11:05:40.079Z,8.71
2018-09-01T11:08:09.160Z,8.50
2018-09-01T11:10:38.494Z,9.16
2018-09-01T11:13:07.726Z,9.29
2018-09-01T11:15:36.840Z,9.72
2018-09-01T11:18:05.891Z,9.63
2018-09-01T11:20:35.244Z,9.06
2018-09-01T11:23:04.762Z,9.32
2018-09-01T11:25:33.672Z,8.25
2018-09-01T11:28:03.074Z,9.09
2018-09-01T11:30:32.405Z,9.16
2018-09-01T11:33:01.664Z,9.57
2018-09-01T11:35:31.010Z,9.82
2018-09-01T11:38:00.235Z,8.98
2018-09-01T11:40:29.509Z,8.55
2018-09-01T11:42:58.783Z,8.82
2018-09-01T11:45:27.843Z,8.31
2018-09-01T11:47:57.018Z,7.87
2018-09-01T11:50:25.992Z,8.40
2018-09-01T11:52:55.171Z,8.25
2018-09-01T11:55:24.467Z,9.14
2018-09-01T11:57:54.353Z,10.53
2018-09-01T12:00:23.736Z,11.11
2018-09-01T12:02:52.857Z,10.89
2018-09-01T12:05:22.187Z,11.94
2018-09-01T12:07:51.535Z,11.96
2018-09-01T12:10:21.013Z,11.61
2018-09-01T12:12:50.276Z,11.29
2018-09-01T12:15:19.489Z,11.11
2018-09-01T12:17:48.714Z,10.42
2018-09-01T12:20:17.922Z,9.79
2018-09-01T12:22:47.204Z,9.96
2018-09-01T12:25:16.520Z,10.12
2018-09-01T12:27:45.739Z,8.85
2018-09-01T12:30:14.895Z,8.91
2018-09-01T12:32:44.321Z,8.54
2018-09-01T12:35:13.414Z,9.44
2018-09-01T12:37:42.571Z,9.72
2018-09-01T12:40:11.450Z,9.74
2018-09-01T12:42:41.109Z,10.50
2018-09-01T12:45:10.073Z,11.40
2018-09-01T12:47:39.416Z,12.33
2018-09-01T12:50:08.839Z,11.89
2018-09-01T12:52:38.255Z,12.45
2018-09-01T12:55:07.798Z,13.04
2018-09-01T12:57:37.145Z,13.77
2018-09-01T13:00:06.759Z,13.59
2018-09-01T13:02:36.144Z,13.46
2018-09-01T13:05:05.316Z,13.15
2018-09-01T13:07:34.847Z,14.22
2018-09-01T13:10:04.219Z,14.07
2018-09-01T13:12:33.487Z,13.60
2018-09-01T13:15:02.904Z,14.02
2018-09-01T13:17:32.080Z,14.87
2018-09-01T13:20:01.176Z,14.03
2018-09-01T13:22:30.164Z,13.48
2018-09-01T13:24:59.465Z,13.00
2018-09-01T13:27:28.743Z,11.98
2018-09-01T13:29:58.011Z,12.40
2018-09-01T13:32:27.153Z,11.93
2018-09-01T13:34:56.323Z,12.49
2018-09-01T13:37:25.363Z,11.28
2018-09-01T13:39:54.404Z,12.00
2018-09-01T13:42:23.478Z,13.68
2018-09-01T13:44:52.549Z,14.30
2018-09-01T13:47:21.748Z,15.71
2018-09-01T13:49:51.879Z,16.11
2018-09-01T13:52:21.712Z,17.24
2018-09-01T13:54:50.643Z,16.77
2018-09-01T13:57:20.182Z,17.92
2018-09-01T13:59:49.217Z,18.52
2018-09-01T14:02:21.361Z,19.00
2018-09-01T14:04:51.700Z,18.96
2018-09-01T14:07:22.097Z,18.61
2018-09-01T14:09:51.331Z,19.61
2018-09-01T14:12:20.386Z,20.33
2018-09-01T14:14:49.662Z,20.83
2018-09-01T14:17:18.791Z,21.31
2018-09-01T14:19:47.967Z,22.65
2018-09-01T14:22:17.271Z,22.52
2018-09-01T14:24:46.493Z,22.42
2018-09-01T14:27:15.417Z,22.34
2018-09-01T14:29:45.797Z,22.09
2018-09-01T14:32:15.140Z,22.57
2018-09-01T14:34:44.333Z,24.83
2018-09-01T14:37:13.584Z,24.03
2018-09-01T14:39:42.611Z,24.48
2018-09-01T14:42:12.012Z,23.42
2018-09-01T14:44:41.175Z,25.03
2018-09-01T14:47:10.553Z,25.11
2018-09-01T14:49:40.252Z,26.03
2018-09-01T14:52:09.400Z,26.65
2018-09-01T14:54:38.546Z,25.09
2018-09-01T14:57:08.210Z,25.27
2018-09-01T14:59:37.351Z,25.58
2018-09-01T15:02:06.854Z,28.97
2018-09-01T15:04:37.115Z,25.82
2018-09-01T15:07:06.581Z,25.13
2018-09-01T15:09:37.985Z,27.85
2018-09-01T15:12:07.731Z,25.72
2018-09-01T15:14:36.988Z,25.23
2018-09-01T15:17:06.619Z,26.93
2018-09-01T15:19:36.142Z,27.69
2018-09-01T15:22:05.574Z,28.76
2018-09-01T15:24:35.060Z,28.15
2018-09-01T15:27:04.548Z,30.06
2018-09-01T15:29:34.073Z,30.63
2018-09-01T15:32:03.106Z,29.67
2018-09-01T15:34:32.255Z,28.53
2018-09-01T15:37:01.434Z,28.90
2018-09-01T15:39:30.458Z,30.29
2018-09-01T15:41:59.496Z,27.71
2018-09-01T15:44:28.819Z,30.53
2018-09-01T15:46:59.934Z,30.73
2018-09-01T15:49:29.193Z,30.70
2018-09-01T15:51:58.580Z,31.63
2018-09-01T15:54:27.954Z,32.43
2018-09-01T15:56:57.112Z,30.52
2018-09-01T15:59:26.289Z,32.31
2018-09-01T16:01:55.582Z,30.80
2018-09-01T16:04:24.518Z,31.19
2018-09-01T16:06:53.837Z,33.11
2018-09-01T16:09:22.830Z,31.03
2018-09-01T16:11:51.839Z,33.51
2018-09-01T16:14:22.059Z,33.64
2018-09-01T16:16:51.317Z,32.93
2018-09-01T16:19:20.224Z,34.55
2018-09-01T16:21:49.421Z,34.23
2018-09-01T16:24:18.712Z,34.46
2018-09-01T16:26:48.175Z,34.46
2018-09-01T16:29:17.789Z,33.78
2018-09-01T16:31:46.847Z,34.19
2018-09-01T16:34:16.324Z,34.54
2018-09-01T16:36:45.280Z,33.88
2018-09-01T16:39:14.187Z,33.60
2018-09-01T16:41:43.219Z,33.88
2018-09-01T16:44:12.263Z,32.88
2018-09-01T16:46:41.255Z,33.71
2018-09-01T16:49:10.865Z,33.47
2018-09-01T16:51:40.036Z,33.68
2018-09-01T16:54:09.317Z,33.02
2018-09-01T16:56:38.686Z,33.47
2018-09-01T16:59:07.655Z,33.78
2018-09-01T17:01:36.639Z,33.49
2018-09-01T17:04:06.160Z,34.08
2018-09-01T17:06:35.512Z,33.18
2018-09-01T17:09:04.975Z,34.49
2018-09-01T17:11:34.338Z,33.36
2018-09-01T17:14:04.495Z,33.90
2018-09-01T17:16:34.047Z,34.67
2018-09-01T17:19:03.094Z,34.46
2018-09-01T17:21:32.313Z,34.98
2018-09-01T17:24:01.487Z,34.33
2018-09-01T17:26:30.935Z,35.30
2018-09-01T17:29:00.494Z,35.02
2018-09-01T17:31:29.597Z,34.48
2018-09-01T17:33:58.920Z,34.13
2018-09-01T17:36:28.270Z,34.47
2018-09-01T17:38:57.094Z,34.55
2018-09-01T17:41:26.419Z,36.97
2018-09-01T17:43:57.112Z,34.53
2018-09-01T17:46:26.245Z,34.59
2018-09-01T17:48:55.680Z,35.58
2018-09-01T17:51:24.530Z,35.40
2018-09-01T17:53:53.852Z,35.10
2018-09-01T17:56:22.793Z,34.81
2018-09-01T17:58:52.059Z,34.60
2018-09-01T18:01:22.975Z,35.21
2018-09-01T18:03:51.991Z,36.88
2018-09-01T18:06:21.566Z,35.50
2018-09-01T18:08:51.021Z,34.53
2018-09-01T18:11:20.232Z,34.69
2018-09-01T18:13:49.946Z,35.72
2018-09-01T18:16:19.414Z,36.01
2018-09-01T18:18:48.724Z,35.34
2018-09-01T18:21:18.118Z,35.46
2018-09-01T18:23:47.382Z,36.59
2018-09-01T18:26:16.818Z,36.79
2018-09-01T18:28:45.991Z,37.77
2018-09-01T18:31:15.865Z,36.79
2018-09-01T18:33:45.309Z,36.79
2018-09-01T18:36:14.696Z,37.49
2018-09-01T18:38:43.763Z,38.63
2018-09-01T18:41:12.884Z,38.66
2018-09-01T18:43:41.772Z,38.76
2018-09-01T18:46:11.289Z,37.30
2018-09-01T18:48:40.304Z,37.60
2018-09-01T18:51:09.205Z,38.19
2018-09-01T18:53:38.581Z,39.82
2018-09-01T18:56:07.606Z,40.00
2018-09-01T18:58:36.750Z,39.58
2018-09-01T19:01:06.062Z,40.15
2018-09-01T19:03:35.703Z,39.22
2018-09-01T19:06:05.101Z,41.02
2018-09-01T19:08:34.351Z,39.43
2018-09-01T19:11:03.610Z,40.93
2018-09-01T19:13:32.570Z,40.77
2018-09-01T19:16:02.109Z,39.99
2018-09-01T19:18:31.448Z,39.50
2018-09-01T19:21:00.980Z,40.37
2018-09-01T19:23:30.223Z,40.58
2018-09-01T19:25:59.611Z,41.00
2018-09-01T19:28:28.831Z,40.78
2018-09-01T19:30:58.260Z,40.38
2018-09-01T19:33:27.439Z,40.42
2018-09-01T19:35:56.757Z,41.00
2018-09-01T19:38:26.102Z,40.99
2018-09-01T19:40:55.325Z,40.47
2018-09-01T19:43:24.899Z,41.47
2018-09-01T19:45:54.318Z,41.64
2018-09-01T19:48:23.288Z,41.75
2018-09-01T19:50:52.523Z,41.90
2018-09-01T19:53:21.404Z,41.02
2018-09-01T19:55:50.496Z,42.02
2018-09-01T19:58:19.540Z,42.09
2018-09-01T20:00:48.763Z,42.32
2018-09-01T20:03:17.941Z,41.90
2018-09-01T20:05:48.217Z,42.26
2018-09-01T20:08:17.734Z,42.32
2018-09-01T20:10:47.067Z,42.11
2018-09-01T20:13:16.231Z,41.56
2018-09-01T20:15:45.465Z,42.09
2018-09-01T20:18:14.841Z,42.19
2018-09-01T20:20:44.754Z,42.56
2018-09-01T20:23:13.821Z,41.96
2018-09-01T20:25:43.223Z,42.52
2018-09-01T20:28:12.539Z,43.76
2018-09-01T20:30:41.588Z,42.69
2018-09-01T20:33:10.816Z,42.87
2018-09-01T20:35:45.236Z,44.57
2018-09-01T20:38:14.479Z,44.78
2018-09-01T20:40:43.788Z,44.83
2018-09-01T20:43:13.144Z,45.96
2018-09-01T20:45:42.787Z,46.27
2018-09-01T20:48:12.170Z,45.66
2018-09-01T20:50:41.480Z,45.22
2018-09-01T20:53:10.673Z,45.89
2018-09-01T20:55:40.001Z,46.99
2018-09-01T20:58:09.479Z,47.35
2018-09-01T21:00:38.444Z,46.36
2018-09-01T21:03:07.831Z,45.80
2018-09-01T21:05:36.779Z,45.96
2018-09-01T21:08:05.867Z,45.63
2018-09-01T21:10:34.890Z,46.15
2018-09-01T21:13:04.217Z,45.65
2018-09-01T21:15:33.477Z,47.27
2018-09-01T21:18:02.295Z,46.88
2018-09-01T21:20:31.529Z,47.58
2018-09-01T21:23:00.716Z,45.94
2018-09-01T21:25:30.039Z,44.78
2018-09-01T21:27:59.380Z,45.91
2018-09-01T21:30:28.388Z,46.18
2018-09-01T21:32:57.447Z,45.48
2018-09-01T21:35:26.638Z,45.13
2018-09-01T21:37:55.971Z,46.50
2018-09-01T21:40:25.020Z,46.60
2018-09-01T21:42:53.990Z,45.94
2018-09-01T21:45:23.408Z,46.40
2018-09-01T21:47:52.425Z,47.07
2018-09-01T21:50:21.337Z,47.55
2018-09-01T21:52:50.751Z,47.51
2018-09-01T21:55:20.012Z,47.18
2018-09-01T21:57:48.924Z,48.05
2018-09-01T22:00:18.357Z,47.24
2018-09-01T22:02:47.776Z,48.23
2018-09-01T22:05:18.068Z,48.74
2018-09-01T22:07:47.444Z,48.72
2018-09-01T22:10:16.803Z,48.18
2018-09-01T22:12:45.811Z,48.39
2018-09-01T22:15:15.299Z,48.35
2018-09-01T22:17:44.260Z,49.54
2018-09-01T22:20:13.624Z,49.01
2018-09-01T22:22:42.822Z,49.73
2018-09-01T22:25:12.041Z,49.89
2018-09-01T22:27:41.663Z,49.50
2018-09-01T22:30:11.097Z,49.82
2018-09-01T22:32:40.320Z,49.58
2018-09-01T22:35:09.781Z,47.85
2018-09-01T22:37:38.895Z,48.88
2018-09-01T22:40:08.274Z,49.88
2018-09-01T22:42:37.534Z,48.78
2018-09-01T22:45:07.023Z,49.65
2018-09-01T22:47:37.274Z,48.70
2018-09-01T22:50:06.657Z,49.13
2018-09-01T22:52:35.815Z,48.79
2018-09-01T22:55:05.267Z,50.82
2018-09-01T22:57:35.128Z,49.47
2018-09-01T23:00:04.315Z,50.66
2018-09-01T23:02:33.571Z,50.43
2018-09-01T23:05:02.852Z,49.11
2018-09-01T23:07:31.971Z,50.71
2018-09-01T23:10:01.283Z,49.67
2018-09-01T23:12:30.596Z,49.48
2018-09-01T23:14:59.796Z,50.71
2018-09-01T23:17:28.632Z,50.30
2018-09-01T23:19:57.700Z,51.00
2018-09-01T23:22:26.970Z,51.29
2018-09-01T23:24:56.135Z,50.66
2018-09-01T23:27:25.079Z,50.55
2018-09-01T23:29:54.412Z,51.76
2018-09-01T23:32:23.987Z,50.93
2018-09-01T23:34:53.384Z,51.60
2018-09-01T23:37:22.744Z,51.67
2018-09-01T23:39:52.732Z,51.83
2018-09-01T23:42:22.066Z,52.31
2018-09-01T23:44:51.432Z,52.38
2018-09-01T23:47:20.852Z,51.67
2018-09-01T23:49:49.884Z,51.19
2018-09-01T23:52:19.295Z,52.04
2018-09-01T23:54:51.907Z,52.32
2018-09-01T23:57:21.367Z,52.37
2018-09-01T23:59:50.395Z,50.90
